sensor_id;sensor_type;location;lat;lon;timestamp;pressure;altitude;pressure_sealevel;temperature;humidity
61573;BME280;47465;43.094;12.434;2023-03-25T00:00:58;98704.03;;;10.08;100.00
61573;BME280;47465;43.094;12.434;2023-03-25T00:03:24;98696.41;;;9.95;100.00
61573;BME280;47465;43.094;12.434;2023-03-25T00:05:53;98695.53;;;9.94;100.00
61573;BME280;47465;43.094;12.434;2023-03-25T00:08:23;98692.16;;;9.89;100.00
61573;BME280;47465;43.094;12.434;2023-03-25T00:10:51;98701.81;;;9.92;100.00
61573;BME280;47465;43.094;12.434;2023-03-25T00:13:18;98694.88;;;9.86;100.00
61573;BME280;47465;43.094;12.434;2023-03-25T00:15:47;98691.44;;;9.82;100.00
61573;BME280;47465;43.094;12.434;2023-03-25T00:18:14;98687.03;;;9.80;100.00
61573;BME280;47465;43.094;12.434;2023-03-25T00:20:42;98695.91;;;9.80;100.00
61573;BME280;47465;43.094;12.434;2023-03-25T00:23:14;98679.25;;;9.74;100.00
61573;BME280;47465;43.094;12.434;2023-03-25T00:25:40;98682.72;;;9.76;100.00
61573;BME280;47465;43.094;12.434;2023-03-25T00:28:06;98687.09;;;9.78;100.00
61573;BME280;47465;43.094;12.434;2023-03-25T00:30:36;98677.38;;;9.77;100.00
61573;BME280;47465;43.094;12.434;2023-03-25T00:33:09;98692.34;;;9.80;100.00
61573;BME280;47465;43.094;12.434;2023-03-25T00:35:38;98681.78;;;9.78;100.00
61573;BME280;47465;43.094;12.434;2023-03-25T00:38:09;98695.72;;;9.86;100.00
61573;BME280;47465;43.094;12.434;2023-03-25T00:40:35;98711.41;;;9.97;100.00
61573;BME280;47465;43.094;12.434;2023-03-25T00:43:03;98687.72;;;9.88;100.00
61573;BME280;47465;43.094;12.434;2023-03-25T00:45:32;98712.84;;;10.11;100.00
61573;BME280;47465;43.094;12.434;2023-03-25T00:47:58;98717.13;;;10.16;100.00
61573;BME280;47465;43.094;12.434;2023-03-25T00:50:26;98693.44;;;10.07;100.00
61573;BME280;47465;43.094;12.434;2023-03-25T00:52:52;98680.41;;;9.98;100.00
61573;BME280;47465;43.094;12.434;2023-03-25T00:55:19;98688.41;;;9.96;100.00
61573;BME280;47465;43.094;12.434;2023-03-25T00:57:49;98691.75;;;10.04;100.00
61573;BME280;47465;43.094;12.434;2023-03-25T01:00:15;98716.09;;;10.22;100.00
61573;BME280;47465;43.094;12.434;2023-03-25T01:02:48;98672.47;;;9.96;100.00
61573;BME280;47465;43.094;12.434;2023-03-25T01:05:18;98687.19;;;10.10;100.00
61573;BME280;47465;43.094;12.434;2023-03-25T01:07:47;98666.28;;;9.96;100.00
61573;BME280;47465;43.094;12.434;2023-03-25T01:10:16;98661.88;;;9.95;100.00
61573;BME280;47465;43.094;12.434;2023-03-25T01:12:42;98661.94;;;9.93;100.00
61573;BME280;47465;43.094;12.434;2023-03-25T01:15:14;98661.00;;;9.94;100.00
61573;BME280;47465;43.094;12.434;2023-03-25T01:17:40;98686.34;;;10.07;100.00
61573;BME280;47465;43.094;12.434;2023-03-25T01:20:12;98665.41;;;9.95;100.00
61573;BME280;47465;43.094;12.434;2023-03-25T01:22:39;98694.25;;;10.11;100.00
61573;BME280;47465;43.094;12.434;2023-03-25T01:25:10;98688.09;;;10.08;100.00
61573;BME280;47465;43.094;12.434;2023-03-25T01:27:37;98662.97;;;9.87;100.00
61573;BME280;47465;43.094;12.434;2023-03-25T01:30:06;98655.88;;;9.86;100.00
61573;BME280;47465;43.094;12.434;2023-03-25T01:32:32;98676.09;;;9.94;100.00
61573;BME280;47465;43.094;12.434;2023-03-25T01:34:58;98659.50;;;9.84;100.00
61573;BME280;47465;43.094;12.434;2023-03-25T01:37:26;98649.00;;;9.79;100.00
61573;BME280;47465;43.094;12.434;2023-03-25T01:40:02;98650.09;;;9.72;100.00
61573;BME280;47465;43.094;12.434;2023-03-25T01:42:31;98651.94;;;9.69;100.00
61573;BME280;47465;43.094;12.434;2023-03-25T01:45:26;98691.44;;;9.82;100.00
61573;BME280;47465;43.094;12.434;2023-03-25T01:47:59;98683.56;;;9.78;100.00
61573;BME280;47465;43.094;12.434;2023-03-25T01:50:26;98658.69;;;9.46;100.00
61573;BME280;47465;43.094;12.434;2023-03-25T01:52:56;98652.59;;;9.41;100.00
61573;BME280;47465;43.094;12.434;2023-03-25T01:55:23;98661.66;;;9.32;100.00
61573;BME280;47465;43.094;12.434;2023-03-25T01:57:58;98667.22;;;9.21;100.00
61573;BME280;47465;43.094;12.434;2023-03-25T02:00:27;98682.06;;;9.30;100.00
61573;BME280;47465;43.094;12.434;2023-03-25T02:02:56;98656.69;;;9.18;100.00
61573;BME280;47465;43.094;12.434;2023-03-25T02:05:28;98647.78;;;9.21;100.00
61573;BME280;47465;43.094;12.434;2023-03-25T02:07:59;98665.97;;;9.38;100.00
61573;BME280;47465;43.094;12.434;2023-03-25T02:10:28;98650.41;;;9.22;100.00
61573;BME280;47465;43.094;12.434;2023-03-25T02:12:59;98672.94;;;9.42;100.00
61573;BME280;47465;43.094;12.434;2023-03-25T02:15:27;98665.13;;;9.36;100.00
61573;BME280;47465;43.094;12.434;2023-03-25T02:18:19;98661.84;;;9.26;100.00
61573;BME280;47465;43.094;12.434;2023-03-25T02:24:07;98653.03;;;9.24;100.00
61573;BME280;47465;43.094;12.434;2023-03-25T02:26:52;98678.16;;;9.46;100.00
61573;BME280;47465;43.094;12.434;2023-03-25T02:29:39;98629.03;;;9.29;100.00
61573;BME280;47465;43.094;12.434;2023-03-25T02:32:29;98630.59;;;9.37;100.00
61573;BME280;47465;43.094;12.434;2023-03-25T02:35:23;98661.59;;;9.71;100.00
61573;BME280;47465;43.094;12.434;2023-03-25T02:38:13;98637.06;;;9.61;100.00
61573;BME280;47465;43.094;12.434;2023-03-25T02:40:46;98652.59;;;9.78;100.00
61573;BME280;47465;43.094;12.434;2023-03-25T02:43:22;98620.84;;;9.74;100.00
61573;BME280;47465;43.094;12.434;2023-03-25T02:45:55;98607.47;;;9.77;100.00
61573;BME280;47465;43.094;12.434;2023-03-25T02:48:34;98616.13;;;9.85;100.00
61573;BME280;47465;43.094;12.434;2023-03-25T02:51:08;98605.44;;;9.86;100.00
61573;BME280;47465;43.094;12.434;2023-03-25T02:53:43;98621.06;;;9.97;100.00
61573;BME280;47465;43.094;12.434;2023-03-25T02:56:16;98618.38;;;9.99;100.00
61573;BME280;47465;43.094;12.434;2023-03-25T02:58:48;98607.91;;;9.93;100.00
61573;BME280;47465;43.094;12.434;2023-03-25T03:01:15;98653.28;;;10.19;100.00
61573;BME280;47465;43.094;12.434;2023-03-25T03:03:41;98624.63;;;9.98;100.00
61573;BME280;47465;43.094;12.434;2023-03-25T03:06:16;98643.66;;;10.14;100.00
61573;BME280;47465;43.094;12.434;2023-03-25T03:09:04;98660.28;;;10.22;100.00
61573;BME280;47465;43.094;12.434;2023-03-25T03:11:43;98632.41;;;10.04;100.00
61573;BME280;47465;43.094;12.434;2023-03-25T03:14:29;98631.38;;;10.10;100.00
61573;BME280;47465;43.094;12.434;2023-03-25T03:17:03;98630.47;;;10.11;100.00
61573;BME280;47465;43.094;12.434;2023-03-25T03:19:39;98633.13;;;10.11;100.00
61573;BME280;47465;43.094;12.434;2023-03-25T03:22:26;98630.53;;;10.07;100.00
61573;BME280;47465;43.094;12.434;2023-03-25T03:25:09;98650.50;;;10.24;100.00
61573;BME280;47465;43.094;12.434;2023-03-25T03:27:46;98617.19;;;10.11;100.00
61573;BME280;47465;43.094;12.434;2023-03-25T03:30:24;98618.81;;;10.15;100.00
61573;BME280;47465;43.094;12.434;2023-03-25T03:32:59;98618.09;;;10.10;100.00
61573;BME280;47465;43.094;12.434;2023-03-25T03:35:28;98610.03;;;10.13;100.00
61573;BME280;47465;43.094;12.434;2023-03-25T03:38:03;98613.59;;;10.13;100.00
61573;BME280;47465;43.094;12.434;2023-03-25T03:40:40;98661.78;;;10.32;100.00
61573;BME280;47465;43.094;12.434;2023-03-25T03:43:12;98626.06;;;10.10;100.00
61573;BME280;47465;43.094;12.434;2023-03-25T03:45:43;98648.69;;;10.24;100.00
61573;BME280;47465;43.094;12.434;2023-03-25T03:48:22;98621.84;;;10.02;100.00
61573;BME280;47465;43.094;12.434;2023-03-25T03:50:54;98604.16;;;10.01;100.00
61573;BME280;47465;43.094;12.434;2023-03-25T03:53:25;98621.47;;;10.15;100.00
61573;BME280;47465;43.094;12.434;2023-03-25T03:56:00;98604.06;;;10.04;100.00
61573;BME280;47465;43.094;12.434;2023-03-25T03:58:30;98608.41;;;10.08;100.00
61573;BME280;47465;43.094;12.434;2023-03-25T04:01:04;98604.97;;;10.03;100.00
61573;BME280;47465;43.094;12.434;2023-03-25T04:03:37;98609.47;;;10.01;100.00
61573;BME280;47465;43.094;12.434;2023-03-25T04:06:14;98604.97;;;10.03;100.00
61573;BME280;47465;43.094;12.434;2023-03-25T04:08:48;98612.75;;;10.11;100.00
61573;BME280;47465;43.094;12.434;2023-03-25T04:11:22;98625.81;;;10.19;100.00
61573;BME280;47465;43.094;12.434;2023-03-25T04:13:53;98618.97;;;10.10;100.00
61573;BME280;47465;43.094;12.434;2023-03-25T04:16:23;98628.63;;;10.13;100.00
61573;BME280;47465;43.094;12.434;2023-03-25T04:18:49;98614.78;;;10.01;100.00
61573;BME280;47465;43.094;12.434;2023-03-25T04:21:18;98619.25;;;9.99;100.00
61573;BME280;47465;43.094;12.434;2023-03-25T04:23:46;98621.13;;;9.96;100.00
61573;BME280;47465;43.094;12.434;2023-03-25T04:26:12;98626.38;;;9.97;100.00
61573;BME280;47465;43.094;12.434;2023-03-25T04:28:41;98624.63;;;9.98;100.00
61573;BME280;47465;43.094;12.434;2023-03-25T04:31:10;98675.22;;;10.26;100.00
61573;BME280;47465;43.094;12.434;2023-03-25T04:33:40;98672.59;;;10.24;100.00
61573;BME280;47465;43.094;12.434;2023-03-25T04:36:07;98670.09;;;10.20;100.00
61573;BME280;47465;43.094;12.434;2023-03-25T04:38:36;98639.56;;;10.02;100.00
61573;BME280;47465;43.094;12.434;2023-03-25T04:41:02;98663.22;;;10.11;100.00
61573;BME280;47465;43.094;12.434;2023-03-25T04:43:31;98697.22;;;10.33;100.00
61573;BME280;47465;43.094;12.434;2023-03-25T04:45:59;98666.66;;;10.15;100.00
61573;BME280;47465;43.094;12.434;2023-03-25T04:48:33;98689.50;;;10.22;100.00
61573;BME280;47465;43.094;12.434;2023-03-25T04:51:06;98673.78;;;10.13;100.00
61573;BME280;47465;43.094;12.434;2023-03-25T04:53:37;98672.16;;;10.08;100.00
61573;BME280;47465;43.094;12.434;2023-03-25T04:56:04;98673.84;;;10.11;100.00
61573;BME280;47465;43.094;12.434;2023-03-25T04:58:33;98700.16;;;10.22;100.00
61573;BME280;47465;43.094;12.434;2023-03-25T05:01:03;98686.31;;;10.09;100.00
61573;BME280;47465;43.094;12.434;2023-03-25T05:03:33;98693.34;;;10.10;100.00
61573;BME280;47465;43.094;12.434;2023-03-25T05:05:59;98695.16;;;10.10;100.00
61573;BME280;47465;43.094;12.434;2023-03-25T05:08:30;98701.28;;;10.12;100.00
61573;BME280;47465;43.094;12.434;2023-03-25T05:10:56;98694.25;;;10.11;100.00
61573;BME280;47465;43.094;12.434;2023-03-25T05:13:25;98705.59;;;10.17;100.00
61573;BME280;47465;43.094;12.434;2023-03-25T05:15:54;98721.25;;;10.28;100.00
61573;BME280;47465;43.094;12.434;2023-03-25T05:18:22;98724.69;;;10.33;100.00
61573;BME280;47465;43.094;12.434;2023-03-25T05:20:49;98704.53;;;10.23;100.00
61573;BME280;47465;43.094;12.434;2023-03-25T05:23:17;98713.25;;;10.30;100.00
61573;BME280;47465;43.094;12.434;2023-03-25T05:25:47;98698.19;;;10.28;100.00
61573;BME280;47465;43.094;12.434;2023-03-25T05:28:15;98703.44;;;10.32;100.00
61573;BME280;47465;43.094;12.434;2023-03-25T05:30:43;98690.97;;;10.35;100.00
61573;BME280;47465;43.094;12.434;2023-03-25T05:33:11;98697.09;;;10.37;100.00
61573;BME280;47465;43.094;12.434;2023-03-25T05:35:47;98700.47;;;10.44;100.00
61573;BME280;47465;43.094;12.434;2023-03-25T05:38:13;98704.09;;;10.41;100.00
61573;BME280;47465;43.094;12.434;2023-03-25T05:40:44;98717.28;;;10.44;100.00
61573;BME280;47465;43.094;12.434;2023-03-25T05:43:12;98728.88;;;10.42;100.00
61573;BME280;47465;43.094;12.434;2023-03-25T05:45:39;98732.44;;;10.41;100.00
61573;BME280;47465;43.094;12.434;2023-03-25T05:48:07;98748.16;;;10.50;100.00
61573;BME280;47465;43.094;12.434;2023-03-25T05:50:36;98722.72;;;10.40;100.00
61573;BME280;47465;43.094;12.434;2023-03-25T05:53:04;98741.75;;;10.57;100.00
61573;BME280;47465;43.094;12.434;2023-03-25T05:55:31;98720.56;;;10.54;100.00
61573;BME280;47465;43.094;12.434;2023-03-25T05:57:57;98727.22;;;10.69;100.00
61573;BME280;47465;43.094;12.434;2023-03-25T06:00:23;98717.34;;;10.74;100.00
61573;BME280;47465;43.094;12.434;2023-03-25T06:02:49;98698.94;;;10.66;100.00
61573;BME280;47465;43.094;12.434;2023-03-25T06:05:17;98689.91;;;10.72;100.00
61573;BME280;47465;43.094;12.434;2023-03-25T06:07:51;98698.59;;;10.79;100.00
61573;BME280;47465;43.094;12.434;2023-03-25T06:10:24;98688.16;;;10.71;100.00
61573;BME280;47465;43.094;12.434;2023-03-25T06:12:51;98678.72;;;10.61;100.00
61573;BME280;47465;43.094;12.434;2023-03-25T06:15:18;98679.84;;;10.52;100.00
61573;BME280;47465;43.094;12.434;2023-03-25T06:17:54;98692.31;;;10.50;100.00
61573;BME280;47465;43.094;12.434;2023-03-25T06:20:21;98663.41;;;10.38;100.00
61573;BME280;47465;43.094;12.434;2023-03-25T06:22:51;98679.78;;;10.54;100.00
61573;BME280;47465;43.094;12.434;2023-03-25T06:25:19;98655.94;;;10.52;100.00
61573;BME280;47465;43.094;12.434;2023-03-25T06:27:50;98653.16;;;10.55;100.00
61573;BME280;47465;43.094;12.434;2023-03-25T06:30:22;98654.41;;;10.73;100.00
61573;BME280;47465;43.094;12.434;2023-03-25T06:32:49;98689.88;;;11.03;100.00
61573;BME280;47465;43.094;12.434;2023-03-25T06:35:19;98665.16;;;11.00;100.00
61573;BME280;47465;43.094;12.434;2023-03-25T06:37:46;98711.78;;;11.41;100.00
61573;BME280;47465;43.094;12.434;2023-03-25T06:40:15;98663.38;;;11.28;100.00
61573;BME280;47465;43.094;12.434;2023-03-25T06:42:41;98703.84;;;11.40;100.00
61573;BME280;47465;43.094;12.434;2023-03-25T06:45:11;98712.66;;;11.42;100.00
61573;BME280;47465;43.094;12.434;2023-03-25T06:47:38;98680.22;;;11.29;100.00
61573;BME280;47465;43.094;12.434;2023-03-25T06:50:06;98676.31;;;11.41;100.00
61573;BME280;47465;43.094;12.434;2023-03-25T06:52:34;98715.75;;;11.84;100.00
61573;BME280;47465;43.094;12.434;2023-03-25T06:55:00;98677.50;;;11.85;100.00
61573;BME280;47465;43.094;12.434;2023-03-25T06:57:26;98681.09;;;12.11;100.00
61573;BME280;47465;43.094;12.434;2023-03-25T06:59:57;98660.19;;;11.99;100.00
61573;BME280;47465;43.094;12.434;2023-03-25T07:02:25;98674.78;;;12.13;100.00
61573;BME280;47465;43.094;12.434;2023-03-25T07:04:53;98658.50;;;11.96;100.00
61573;BME280;47465;43.094;12.434;2023-03-25T07:07:19;98668.84;;;12.05;100.00
61573;BME280;47465;43.094;12.434;2023-03-25T07:09:53;98664.09;;;12.15;100.00
61573;BME280;47465;43.094;12.434;2023-03-25T07:12:20;98693.63;;;12.59;100.00
61573;BME280;47465;43.094;12.434;2023-03-25T07:14:50;98671.19;;;12.65;100.00
61573;BME280;47465;43.094;12.434;2023-03-25T07:17:20;98658.06;;;12.59;100.00
61573;BME280;47465;43.094;12.434;2023-03-25T07:19:50;98710.09;;;12.70;100.00
61573;BME280;47465;43.094;12.434;2023-03-25T07:22:16;98708.56;;;12.88;100.00
61573;BME280;47465;43.094;12.434;2023-03-25T07:24:45;98681.91;;;12.87;99.79
61573;BME280;47465;43.094;12.434;2023-03-25T07:27:13;98684.13;;;12.76;98.18
61573;BME280;47465;43.094;12.434;2023-03-25T07:29:43;98680.06;;;12.89;98.64
61573;BME280;47465;43.094;12.434;2023-03-25T07:32:10;98673.91;;;13.10;96.66
61573;BME280;47465;43.094;12.434;2023-03-25T07:34:38;98702.88;;;13.45;95.93
61573;BME280;47465;43.094;12.434;2023-03-25T07:37:11;98696.72;;;13.43;93.66
61573;BME280;47465;43.094;12.434;2023-03-25T07:39:41;98684.41;;;13.15;95.72
61573;BME280;47465;43.094;12.434;2023-03-25T07:42:10;98677.53;;;13.31;95.25
61573;BME280;47465;43.094;12.434;2023-03-25T07:44:36;98681.69;;;13.62;94.47
61573;BME280;47465;43.094;12.434;2023-03-25T07:47:05;98680.78;;;13.40;93.62
61573;BME280;47465;43.094;12.434;2023-03-25T07:49:32;98678.47;;;13.74;92.45
61573;BME280;47465;43.094;12.434;2023-03-25T07:52:01;98665.84;;;14.00;91.42
61573;BME280;47465;43.094;12.434;2023-03-25T07:54:29;98680.25;;;13.96;91.11
61573;BME280;47465;43.094;12.434;2023-03-25T07:56:55;98713.84;;;14.03;92.17
61573;BME280;47465;43.094;12.434;2023-03-25T07:59:24;98667.25;;;13.66;92.23
61573;BME280;47465;43.094;12.434;2023-03-25T08:01:53;98681.13;;;13.54;92.97
61573;BME280;47465;43.094;12.434;2023-03-25T08:04:20;98677.44;;;13.56;93.63
61573;BME280;47465;43.094;12.434;2023-03-25T08:06:49;98657.06;;;13.96;91.47
61573;BME280;47465;43.094;12.434;2023-03-25T08:09:15;98662.00;;;13.85;89.11
61573;BME280;47465;43.094;12.434;2023-03-25T08:11:43;98659.63;;;14.00;88.45
61573;BME280;47465;43.094;12.434;2023-03-25T08:14:10;98661.44;;;14.20;86.66
61573;BME280;47465;43.094;12.434;2023-03-25T08:16:40;98671.00;;;14.25;86.75
61573;BME280;47465;43.094;12.434;2023-03-25T08:19:10;98664.41;;;14.53;84.17
61573;BME280;47465;43.094;12.434;2023-03-25T08:21:40;98661.81;;;14.51;85.15
61573;BME280;47465;43.094;12.434;2023-03-25T08:24:06;98667.44;;;14.66;83.37
61573;BME280;47465;43.094;12.434;2023-03-25T08:26:33;98676.94;;;14.73;83.63
61573;BME280;47465;43.094;12.434;2023-03-25T08:29:04;98667.44;;;15.05;82.24
61573;BME280;47465;43.094;12.434;2023-03-25T08:31:35;98662.44;;;15.35;79.91
61573;BME280;47465;43.094;12.434;2023-03-25T08:34:04;98675.47;;;15.60;77.89
61573;BME280;47465;43.094;12.434;2023-03-25T08:36:31;98670.56;;;15.70;79.79
61573;BME280;47465;43.094;12.434;2023-03-25T08:38:57;98659.34;;;15.62;78.70
61573;BME280;47465;43.094;12.434;2023-03-25T08:41:32;98646.50;;;15.69;78.54
61573;BME280;47465;43.094;12.434;2023-03-25T08:43:58;98647.56;;;15.28;80.53
61573;BME280;47465;43.094;12.434;2023-03-25T08:46:32;98677.19;;;15.44;80.22
61573;BME280;47465;43.094;12.434;2023-03-25T08:48:58;98654.94;;;14.85;82.63
61573;BME280;47465;43.094;12.434;2023-03-25T08:51:25;98677.72;;;15.14;81.93
61573;BME280;47465;43.094;12.434;2023-03-25T08:54:17;98671.16;;;15.39;81.13
61573;BME280;47465;43.094;12.434;2023-03-25T08:56:51;98626.88;;;15.13;80.47
61573;BME280;47465;43.094;12.434;2023-03-25T08:59:18;98621.59;;;15.11;80.66
61573;BME280;47465;43.094;12.434;2023-03-25T09:01:47;98621.97;;;14.85;80.72
61573;BME280;47465;43.094;12.434;2023-03-25T09:04:16;98645.03;;;14.68;83.26
61573;BME280;47465;43.094;12.434;2023-03-25T09:06:44;98622.50;;;14.53;82.35
61573;BME280;47465;43.094;12.434;2023-03-25T09:09:11;98622.50;;;14.53;82.82
61573;BME280;47465;43.094;12.434;2023-03-25T09:11:37;98628.56;;;14.96;81.92
61573;BME280;47465;43.094;12.434;2023-03-25T09:14:06;98627.63;;;14.97;81.03
61573;BME280;47465;43.094;12.434;2023-03-25T09:16:33;98635.72;;;15.15;79.84
61573;BME280;47465;43.094;12.434;2023-03-25T09:19:02;98637.88;;;15.26;79.05
61573;BME280;47465;43.094;12.434;2023-03-25T09:21:29;98628.41;;;16.09;77.19
61573;BME280;47465;43.094;12.434;2023-03-25T09:23:58;98658.88;;;16.25;74.19
61573;BME280;47465;43.094;12.434;2023-03-25T09:26:27;98644.19;;;16.15;73.95
61573;BME280;47465;43.094;12.434;2023-03-25T09:28:54;98639.63;;;16.50;73.24
61573;BME280;47465;43.094;12.434;2023-03-25T09:31:21;98635.16;;;16.51;73.28
61573;BME280;47465;43.094;12.434;2023-03-25T09:33:47;98646.97;;;16.64;71.24
61573;BME280;47465;43.094;12.434;2023-03-25T09:36:26;98675.50;;;16.49;71.99
61573;BME280;47465;43.094;12.434;2023-03-25T09:38:52;98664.22;;;16.42;72.22
61573;BME280;47465;43.094;12.434;2023-03-25T09:41:49;98678.38;;;16.79;71.51
61573;BME280;47465;43.094;12.434;2023-03-25T09:44:21;98644.88;;;16.69;72.05
61573;BME280;47465;43.094;12.434;2023-03-25T09:46:51;98647.06;;;16.96;70.12
61573;BME280;47465;43.094;12.434;2023-03-25T09:49:22;98627.38;;;16.62;70.74
61573;BME280;47465;43.094;12.434;2023-03-25T09:51:58;98623.50;;;16.85;70.85
61573;BME280;47465;43.094;12.434;2023-03-25T09:54:39;98625.75;;;17.09;69.73
61573;BME280;47465;43.094;12.434;2023-03-25T09:57:16;98622.19;;;17.56;68.17
61573;BME280;47465;43.094;12.434;2023-03-25T09:59:53;98611.47;;;17.40;66.79
61573;BME280;47465;43.094;12.434;2023-03-25T10:02:29;98601.31;;;17.29;66.65
61573;BME280;47465;43.094;12.434;2023-03-25T10:05:21;98623.44;;;17.18;65.70
61573;BME280;47465;43.094;12.434;2023-03-25T10:08:07;98620.34;;;17.72;64.71
61573;BME280;47465;43.094;12.434;2023-03-25T10:10:44;98628.81;;;18.41;62.36
61573;BME280;47465;43.094;12.434;2023-03-25T10:13:23;98635.88;;;18.72;59.62
61573;BME280;47465;43.094;12.434;2023-03-25T10:16:02;98598.56;;;18.80;55.87
61573;BME280;47465;43.094;12.434;2023-03-25T10:18:51;98592.75;;;18.29;55.39
61573;BME280;47465;43.094;12.434;2023-03-25T10:21:31;98587.47;;;17.67;55.01
61573;BME280;47465;43.094;12.434;2023-03-25T10:24:12;98601.06;;;18.10;55.44
61573;BME280;47465;43.094;12.434;2023-03-25T10:26:44;98595.16;;;18.34;53.51
61573;BME280;47465;43.094;12.434;2023-03-25T10:29:25;98603.19;;;18.19;54.34
61573;BME280;47465;43.094;12.434;2023-03-25T10:31:55;98601.72;;;17.99;52.97
61573;BME280;47465;43.094;12.434;2023-03-25T10:34:26;98590.94;;;17.99;54.84
61573;BME280;47465;43.094;12.434;2023-03-25T10:36:54;98612.19;;;17.90;53.89
61573;BME280;47465;43.094;12.434;2023-03-25T10:39:30;98586.94;;;17.76;55.05
61573;BME280;47465;43.094;12.434;2023-03-25T10:42:03;98601.44;;;17.58;55.80
61573;BME280;47465;43.094;12.434;2023-03-25T10:44:36;98594.19;;;17.28;56.17
61573;BME280;47465;43.094;12.434;2023-03-25T10:47:32;98582.59;;;17.90;55.64
61573;BME280;47465;43.094;12.434;2023-03-25T10:50:14;98592.47;;;18.34;55.35
61573;BME280;47465;43.094;12.434;2023-03-25T10:52:44;98594.59;;;18.86;52.93
61573;BME280;47465;43.094;12.434;2023-03-25T10:55:27;98595.31;;;19.17;53.49
61573;BME280;47465;43.094;12.434;2023-03-25T10:58:03;98587.16;;;18.18;54.64
61573;BME280;47465;43.094;12.434;2023-03-25T11:00:31;98611.00;;;18.24;54.11
61573;BME280;47465;43.094;12.434;2023-03-25T11:02:57;98582.59;;;18.63;54.35
61573;BME280;47465;43.094;12.434;2023-03-25T11:05:30;98573.81;;;18.59;51.10
61573;BME280;47465;43.094;12.434;2023-03-25T11:15:22;98559.44;;;19.43;48.97
61573;BME280;47465;43.094;12.434;2023-03-25T11:18:03;98558.47;;;19.17;47.32
61573;BME280;47465;43.094;12.434;2023-03-25T11:20:36;98558.03;;;18.82;47.11
61573;BME280;47465;43.094;12.434;2023-03-25T11:23:05;98574.88;;;19.27;46.65
61573;BME280;47465;43.094;12.434;2023-03-25T11:25:38;98564.66;;;19.59;44.24
61573;BME280;47465;43.094;12.434;2023-03-25T11:28:12;98550.72;;;19.25;42.67
61573;BME280;47465;43.094;12.434;2023-03-25T11:31:07;98545.25;;;19.27;43.55
61573;BME280;47465;43.094;12.434;2023-03-25T11:33:37;98564.13;;;19.13;41.79
61573;BME280;47465;43.094;12.434;2023-03-25T11:36:11;98547.94;;;19.00;43.28
61573;BME280;47465;43.094;12.434;2023-03-25T11:38:39;98554.97;;;18.59;43.83
61573;BME280;47465;43.094;12.434;2023-03-25T11:41:05;98550.16;;;18.64;45.23
61573;BME280;47465;43.094;12.434;2023-03-25T11:43:36;98548.25;;;18.81;43.59
61573;BME280;47465;43.094;12.434;2023-03-25T11:46:11;98553.59;;;18.09;45.10
61573;BME280;47465;43.094;12.434;2023-03-25T11:48:39;98571.66;;;18.07;46.76
61573;BME280;47465;43.094;12.434;2023-03-25T11:51:12;98573.00;;;18.14;46.04
61573;BME280;47465;43.094;12.434;2023-03-25T11:53:43;98545.91;;;18.03;46.62
61573;BME280;47465;43.094;12.434;2023-03-25T11:56:11;98565.53;;;18.34;45.40
61573;BME280;47465;43.094;12.434;2023-03-25T11:58:43;98552.06;;;18.19;45.06
61573;BME280;47465;43.094;12.434;2023-03-25T12:01:21;98542.53;;;18.28;43.87
61573;BME280;47465;43.094;12.434;2023-03-25T12:03:48;98524.88;;;18.24;44.25
61573;BME280;47465;43.094;12.434;2023-03-25T12:06:19;98523.34;;;18.48;43.77
61573;BME280;47465;43.094;12.434;2023-03-25T12:08:48;98542.44;;;18.58;41.70
61573;BME280;47465;43.094;12.434;2023-03-25T12:11:19;98521.78;;;18.30;40.38
61573;BME280;47465;43.094;12.434;2023-03-25T12:14:08;98538.31;;;18.81;41.33
61573;BME280;47465;43.094;12.434;2023-03-25T12:16:44;98526.41;;;19.13;42.49
61573;BME280;47465;43.094;12.434;2023-03-25T12:19:20;98507.66;;;19.11;41.39
61573;BME280;47465;43.094;12.434;2023-03-25T12:22:27;98532.41;;;19.03;41.23
61573;BME280;47465;43.094;12.434;2023-03-25T12:25:11;98491.28;;;18.87;42.65
61573;BME280;47465;43.094;12.434;2023-03-25T12:27:52;98480.38;;;18.88;41.38
61573;BME280;47465;43.094;12.434;2023-03-25T12:30:32;98488.56;;;18.73;42.25
61573;BME280;47465;43.094;12.434;2023-03-25T12:33:13;98483.19;;;18.73;41.16
61573;BME280;47465;43.094;12.434;2023-03-25T12:35:53;98472.34;;;18.60;41.24
61573;BME280;47465;43.094;12.434;2023-03-25T12:38:37;98471.34;;;18.75;39.65
61573;BME280;47465;43.094;12.434;2023-03-25T12:41:20;98450.09;;;18.71;39.48
61573;BME280;47465;43.094;12.434;2023-03-25T12:43:56;98459.19;;;18.97;39.74
61573;BME280;47465;43.094;12.434;2023-03-25T12:46:33;98458.16;;;19.12;40.82
61573;BME280;47465;43.094;12.434;2023-03-25T12:49:21;98458.88;;;19.28;40.37
61573;BME280;47465;43.094;12.434;2023-03-25T12:51:56;98457.34;;;19.24;40.89
61573;BME280;47465;43.094;12.434;2023-03-25T12:54:37;98429.84;;;19.19;40.72
61573;BME280;47465;43.094;12.434;2023-03-25T12:57:18;98431.22;;;19.12;40.13
61573;BME280;47465;43.094;12.434;2023-03-25T13:02:54;98425.50;;;19.17;40.23
61573;BME280;47465;43.094;12.434;2023-03-25T13:05:36;98438.94;;;19.04;39.72
61573;BME280;47465;43.094;12.434;2023-03-25T13:08:13;98442.22;;;19.09;40.43
61573;BME280;47465;43.094;12.434;2023-03-25T13:10:42;98463.47;;;19.14;38.37
61573;BME280;47465;43.094;12.434;2023-03-25T13:13:20;98436.09;;;19.20;40.73
61573;BME280;47465;43.094;12.434;2023-03-25T13:15:59;98435.78;;;19.24;39.39
61573;BME280;47465;43.094;12.434;2023-03-25T13:18:55;98438.19;;;19.42;39.54
61573;BME280;47465;43.094;12.434;2023-03-25T13:21:46;98422.41;;;19.23;39.77
61573;BME280;47465;43.094;12.434;2023-03-25T13:24:22;98429.47;;;19.51;38.06